sensor_id;sensor_type;location;lat;lon;timestamp;temperature;humidity
63960;DHT22;50136;51.374;0.096;2023-09-12T00:09:11;18.40;99.90
63960;DHT22;50136;51.374;0.096;2023-09-12T00:19:14;18.30;99.90
63960;DHT22;50136;51.374;0.096;2023-09-12T00:29:16;18.30;99.90
63960;DHT22;50136;51.374;0.096;2023-09-12T00:39:20;18.20;99.90
63960;DHT22;50136;51.374;0.096;2023-09-12T00:49:22;18.10;99.90
63960;DHT22;50136;51.374;0.096;2023-09-12T00:59:26;18.00;99.90
63960;DHT22;50136;51.374;0.096;2023-09-12T01:09:29;17.90;99.90
63960;DHT22;50136;51.374;0.096;2023-09-12T01:19:33;17.90;99.90
63960;DHT22;50136;51.374;0.096;2023-09-12T01:29:37;17.90;99.90
63960;DHT22;50136;51.374;0.096;2023-09-12T01:39:40;17.80;99.90
63960;DHT22;50136;51.374;0.096;2023-09-12T01:49:46;17.90;99.90
63960;DHT22;50136;51.374;0.096;2023-09-12T01:59:49;17.90;99.90
63960;DHT22;50136;51.374;0.096;2023-09-12T02:09:53;18.00;99.90
63960;DHT22;50136;51.374;0.096;2023-09-12T02:19:55;18.00;99.90
63960;DHT22;50136;51.374;0.096;2023-09-12T02:29:58;18.10;99.90
63960;DHT22;50136;51.374;0.096;2023-09-12T02:40:00;18.10;99.90
63960;DHT22;50136;51.374;0.096;2023-09-12T02:50:04;18.10;99.90
63960;DHT22;50136;51.374;0.096;2023-09-12T03:00:07;18.10;99.90
63960;DHT22;50136;51.374;0.096;2023-09-12T03:10:11;18.10;99.90
63960;DHT22;50136;51.374;0.096;2023-09-12T03:20:13;18.10;99.90
63960;DHT22;50136;51.374;0.096;2023-09-12T03:30:16;18.10;99.90
63960;DHT22;50136;51.374;0.096;2023-09-12T03:40:18;18.10;99.90
63960;DHT22;50136;51.374;0.096;2023-09-12T03:50:22;18.20;99.90
63960;DHT22;50136;51.374;0.096;2023-09-12T04:00:24;18.30;99.90
63960;DHT22;50136;51.374;0.096;2023-09-12T04:10:27;18.30;99.90
63960;DHT22;50136;51.374;0.096;2023-09-12T04:20:29;18.30;99.90
63960;DHT22;50136;51.374;0.096;2023-09-12T04:30:32;18.30;99.90
63960;DHT22;50136;51.374;0.096;2023-09-12T04:40:34;18.30;99.90
63960;DHT22;50136;51.374;0.096;2023-09-12T04:50:41;18.30;99.90
63960;DHT22;50136;51.374;0.096;2023-09-12T05:00:43;18.40;99.90
63960;DHT22;50136;51.374;0.096;2023-09-12T05:10:47;18.30;99.90
63960;DHT22;50136;51.374;0.096;2023-09-12T05:20:49;18.30;99.90
63960;DHT22;50136;51.374;0.096;2023-09-12T05:30:53;18.30;99.90
63960;DHT22;50136;51.374;0.096;2023-09-12T05:40:56;18.20;99.90
63960;DHT22;50136;51.374;0.096;2023-09-12T05:50:59;18.20;99.90
63960;DHT22;50136;51.374;0.096;2023-09-12T06:01:02;18.20;99.90
63960;DHT22;50136;51.374;0.096;2023-09-12T06:11:05;18.20;99.90
63960;DHT22;50136;51.374;0.096;2023-09-12T06:21:07;18.20;99.90
63960;DHT22;50136;51.374;0.096;2023-09-12T06:31:11;18.20;99.90
63960;DHT22;50136;51.374;0.096;2023-09-12T06:41:13;18.30;99.90
63960;DHT22;50136;51.374;0.096;2023-09-12T06:51:23;18.60;99.90
63960;DHT22;50136;51.374;0.096;2023-09-12T07:01:26;18.70;99.90
63960;DHT22;50136;51.374;0.096;2023-09-12T07:11:29;18.70;99.90
63960;DHT22;50136;51.374;0.096;2023-09-12T07:21:34;19.00;99.90
63960;DHT22;50136;51.374;0.096;2023-09-12T07:31:38;19.20;99.90
63960;DHT22;50136;51.374;0.096;2023-09-12T07:41:47;19.20;99.90
63960;DHT22;50136;51.374;0.096;2023-09-12T07:51:51;19.20;99.90
63960;DHT22;50136;51.374;0.096;2023-09-12T08:01:53;19.00;99.90
63960;DHT22;50136;51.374;0.096;2023-09-12T08:22:48;19.00;99.90
63960;DHT22;50136;51.374;0.096;2023-09-12T08:32:50;19.30;99.90
63960;DHT22;50136;51.374;0.096;2023-09-12T08:42:54;19.50;99.90
63960;DHT22;50136;51.374;0.096;2023-09-12T08:52:57;19.70;99.90
63960;DHT22;50136;51.374;0.096;2023-09-12T09:03:10;20.10;99.90
63960;DHT22;50136;51.374;0.096;2023-09-12T09:13:12;20.40;99.90
63960;DHT22;50136;51.374;0.096;2023-09-12T09:23:16;20.40;99.90
63960;DHT22;50136;51.374;0.096;2023-09-12T09:33:18;20.40;99.90
63960;DHT22;50136;51.374;0.096;2023-09-12T09:43:22;20.70;99.90
63960;DHT22;50136;51.374;0.096;2023-09-12T09:53:26;20.90;99.90
63960;DHT22;50136;51.374;0.096;2023-09-12T10:03:30;21.70;99.90
63960;DHT22;50136;51.374;0.096;2023-09-12T10:13:35;22.30;99.90
63960;DHT22;50136;51.374;0.096;2023-09-12T10:23:53;23.10;99.90
63960;DHT22;50136;51.374;0.096;2023-09-12T10:33:57;24.60;99.90
63960;DHT22;50136;51.374;0.096;2023-09-12T10:44:06;24.80;99.90
63960;DHT22;50136;51.374;0.096;2023-09-12T10:54:14;24.40;99.90
63960;DHT22;50136;51.374;0.096;2023-09-12T11:04:33;24.20;99.90
63960;DHT22;50136;51.374;0.096;2023-09-12T11:14:35;23.40;99.90
63960;DHT22;50136;51.374;0.096;2023-09-12T11:24:43;23.10;99.90
63960;DHT22;50136;51.374;0.096;2023-09-12T11:34:47;22.90;99.90
63960;DHT22;50136;51.374;0.096;2023-09-12T11:44:52;23.10;99.90
63960;DHT22;50136;51.374;0.096;2023-09-12T11:54:54;23.40;99.90
63960;DHT22;50136;51.374;0.096;2023-09-12T12:04:59;24.00;99.90
63960;DHT22;50136;51.374;0.096;2023-09-12T12:15:02;24.00;99.90
63960;DHT22;50136;51.374;0.096;2023-09-12T12:25:11;23.70;99.90
63960;DHT22;50136;51.374;0.096;2023-09-12T12:35:17;23.70;99.90
63960;DHT22;50136;51.374;0.096;2023-09-12T12:45:52;23.80;99.90
63960;DHT22;50136;51.374;0.096;2023-09-12T12:55:54;23.70;99.90
63960;DHT22;50136;51.374;0.096;2023-09-12T13:05:58;23.60;99.90
63960;DHT22;50136;51.374;0.096;2023-09-12T13:16:00;23.60;99.90
63960;DHT22;50136;51.374;0.096;2023-09-12T13:26:06;23.50;99.90
63960;DHT22;50136;51.374;0.096;2023-09-12T13:36:09;23.40;99.90
63960;DHT22;50136;51.374;0.096;2023-09-12T13:46:12;23.60;99.90
63960;DHT22;50136;51.374;0.096;2023-09-12T13:56:17;23.80;99.90
63960;DHT22;50136;51.374;0.096;2023-09-12T14:06:33;23.80;99.90
63960;DHT22;50136;51.374;0.096;2023-09-12T14:16:36;23.70;99.90
63960;DHT22;50136;51.374;0.096;2023-09-12T14:26:39;23.70;99.90
63960;DHT22;50136;51.374;0.096;2023-09-12T14:36:43;23.80;99.90
63960;DHT22;50136;51.374;0.096;2023-09-12T14:46:46;24.00;99.90
63960;DHT22;50136;51.374;0.096;2023-09-12T14:56:49;24.00;99.90
63960;DHT22;50136;51.374;0.096;2023-09-12T15:06:52;23.70;99.90
63960;DHT22;50136;51.374;0.096;2023-09-12T15:16:54;23.30;99.90
63960;DHT22;50136;51.374;0.096;2023-09-12T15:26:57;23.40;99.90
63960;DHT22;50136;51.374;0.096;2023-09-12T15:37:10;23.80;99.90
63960;DHT22;50136;51.374;0.096;2023-09-12T15:47:16;24.20;99.90
63960;DHT22;50136;51.374;0.096;2023-09-12T15:57:21;23.50;99.90
63960;DHT22;50136;51.374;0.096;2023-09-12T16:07:25;23.00;99.90
63960;DHT22;50136;51.374;0.096;2023-09-12T16:17:27;22.80;99.90
63960;DHT22;50136;51.374;0.096;2023-09-12T16:27:30;22.60;99.90
63960;DHT22;50136;51.374;0.096;2023-09-12T16:37:32;22.50;99.90
63960;DHT22;50136;51.374;0.096;2023-09-12T16:47:36;22.20;99.90
63960;DHT22;50136;51.374;0.096;2023-09-12T16:57:38;22.10;99.90
63960;DHT22;50136;51.374;0.096;2023-09-12T17:07:41;21.90;99.90
63960;DHT22;50136;51.374;0.096;2023-09-12T17:17:43;21.80;99.90
63960;DHT22;50136;51.374;0.096;2023-09-12T17:27:47;21.50;99.90
63960;DHT22;50136;51.374;0.096;2023-09-12T17:37:49;21.20;99.90
63960;DHT22;50136;51.374;0.096;2023-09-12T17:47:53;20.90;99.90
63960;DHT22;50136;51.374;0.096;2023-09-12T17:57:55;20.70;99.90
63960;DHT22;50136;51.374;0.096;2023-09-12T18:07:59;20.70;99.90
63960;DHT22;50136;51.374;0.096;2023-09-12T18:18:01;20.60;99.90
63960;DHT22;50136;51.374;0.096;2023-09-12T18:28:05;20.50;99.90
63960;DHT22;50136;51.374;0.096;2023-09-12T18:38:07;20.20;99.90
63960;DHT22;50136;51.374;0.096;2023-09-12T18:48:11;20.00;99.90
63960;DHT22;50136;51.374;0.096;2023-09-12T18:58:14;19.80;99.90
63960;DHT22;50136;51.374;0.096;2023-09-12T19:08:17;19.70;99.90
63960;DHT22;50136;51.374;0.096;2023-09-12T19:18:19;19.60;99.90
63960;DHT22;50136;51.374;0.096;2023-09-12T19:28:24;19.40;99.90
63960;DHT22;50136;51.374;0.096;2023-09-12T19:38:26;19.20;99.90
63960;DHT22;50136;51.374;0.096;2023-09-12T19:48:29;19.40;99.90
63960;DHT22;50136;51.374;0.096;2023-09-12T19:58:32;19.20;99.90
63960;DHT22;50136;51.374;0.096;2023-09-12T20:08:35;19.20;99.90
63960;DHT22;50136;51.374;0.096;2023-09-12T20:18:37;19.10;99.90
63960;DHT22;50136;51.374;0.096;2023-09-12T20:28:40;19.10;99.90
63960;DHT22;50136;51.374;0.096;2023-09-12T20:38:47;18.60;99.90
63960;DHT22;50136;51.374;0.096;2023-09-12T20:48:50;18.40;99.90
63960;DHT22;50136;51.374;0.096;2023-09-12T20:58:52;18.30;99.90
63960;DHT22;50136;51.374;0.096;2023-09-12T21:08:56;18.20;99.90
63960;DHT22;50136;51.374;0.096;2023-09-12T21:19:01;18.00;99.90
63960;DHT22;50136;51.374;0.096;2023-09-12T21:29:04;17.80;99.90
63960;DHT22;50136;51.374;0.096;2023-09-12T21:39:06;17.60;99.90
63960;DHT22;50136;51.374;0.096;2023-09-12T21:49:10;17.60;99.90
63960;DHT22;50136;51.374;0.096;2023-09-12T21:59:12;17.40;99.90
63960;DHT22;50136;51.374;0.096;2023-09-12T22:09:15;17.30;99.90
63960;DHT22;50136;51.374;0.096;2023-09-12T22:19:17;17.10;99.90
63960;DHT22;50136;51.374;0.096;2023-09-12T22:29:21;16.80;99.90
63960;DHT22;50136;51.374;0.096;2023-09-12T22:39:22;16.70;99.90
63960;DHT22;50136;51.374;0.096;2023-09-12T22:49:26;16.60;99.90
63960;DHT22;50136;51.374;0.096;2023-09-12T22:59:28;16.60;99.90
63960;DHT22;50136;51.374;0.096;2023-09-12T23:09:31;16.50;99.90
63960;DHT22;50136;51.374;0.096;2023-09-12T23:19:33;16.30;99.90
63960;DHT22;50136;51.374;0.096;2023-09-12T23:29:37;16.00;99.90
63960;DHT22;50136;51.374;0.096;2023-09-12T23:39:39;15.90;99.90
63960;DHT22;50136;51.374;0.096;2023-09-12T23:49:42;15.50;99.90
63960;DHT22;50136;51.374;0.096;2023-09-12T23:59:44;15.50;99.90
